Time;durP1;ratioP1;P1;durP2;ratioP2;P2;SDS_P1;SDS_P2;PMS_P1;PMS_P2;Temp;Humidity;BMP_temperature;BMP_pressure;BME280_temperature;BME280_humidity;BME280_pressure;Samples;Min_cycle;Max_cycle;Signal;HPM_P1;HPM_P2
2023/07/04 00:00:18;;;;;;;4.90;0.95;;;;;;;12.66;81.80;100922.69;7382327;19;19914;-73
2023/07/04 00:02:47;;;;;;;5.28;1.05;;;;;;;12.63;81.44;100921.22;7384572;19;19926;-73
2023/07/04 00:05:16;;;;;;;5.88;1.20;;;;;;;12.63;81.26;100923.91;7378993;19;19926;-72
2023/07/04 00:07:45;;;;;;;8.88;1.33;;;;;;;12.62;81.35;100919.53;7377043;19;19927;-74
2023/07/04 00:10:14;;;;;;;6.47;1.67;;;;;;;12.60;81.69;100916.16;7380921;19;19941;-73
2023/07/04 00:12:42;;;;;;;6.63;2.03;;;;;;;12.59;81.46;100914.50;7381883;19;19922;-73
2023/07/04 00:15:13;;;;;;;7.22;1.20;;;;;;;12.58;81.35;100912.81;7383365;19;19939;-73
2023/07/04 00:17:45;;;;;;;8.10;2.15;;;;;;;12.57;81.55;100916.56;7379415;19;19922;-73
2023/07/04 00:20:14;;;;;;;5.50;1.15;;;;;;;12.57;81.46;100921.13;7385944;19;19922;-73
2023/07/04 00:22:44;;;;;;;4.97;1.00;;;;;;;12.55;81.51;100925.88;7377911;19;19923;-73
2023/07/04 00:25:13;;;;;;;3.83;1.02;;;;;;;12.54;81.18;100926.91;7381363;19;19914;-73
2023/07/04 00:27:41;;;;;;;7.65;1.05;;;;;;;12.50;81.85;100931.00;7376203;19;19922;-73
2023/07/04 00:30:12;;;;;;;5.47;0.80;;;;;;;12.49;81.30;100927.47;7378195;19;20271;-73
2023/07/04 00:32:43;;;;;;;5.55;0.73;;;;;;;12.47;81.59;100924.09;7378993;19;19930;-73
2023/07/04 00:35:12;;;;;;;7.07;1.33;;;;;;;12.44;81.63;100931.75;7375007;19;20374;-73
2023/07/04 00:37:43;;;;;;;8.93;1.20;;;;;;;12.42;81.29;100929.25;7378645;19;19930;-73
2023/07/04 00:40:15;;;;;;;4.60;1.00;;;;;;;12.39;81.18;100929.59;7380329;19;20251;-74
2023/07/04 00:42:45;;;;;;;6.47;1.17;;;;;;;12.37;81.62;100928.97;7379086;19;19923;-74
2023/07/04 00:45:20;;;;;;;9.20;1.55;;;;;;;12.34;81.76;100926.63;7376786;19;19922;-73
2023/07/04 00:47:56;;;;;;;7.47;1.25;;;;;;;12.30;82.42;100930.72;7378609;19;20371;-73
2023/07/04 00:50:29;;;;;;;3.67;0.90;;;;;;;12.30;81.25;100929.91;7379942;19;19926;-73
2023/07/04 00:53:02;;;;;;;7.20;1.15;;;;;;;12.28;81.86;100933.63;7380414;19;20742;-73
2023/07/04 00:55:32;;;;;;;5.55;1.58;;;;;;;12.28;81.34;100933.63;7377686;19;19930;-73
2023/07/04 00:58:04;;;;;;;4.38;1.10;;;;;;;12.26;81.60;100935.66;7377003;19;20029;-73
2023/07/04 01:00:33;;;;;;;5.85;0.75;;;;;;;12.26;81.74;100934.81;7380723;19;19918;-74
2023/07/04 01:03:08;;;;;;;6.53;1.10;;;;;;;12.23;82.12;100935.22;7380297;19;19939;-73
2023/07/04 01:05:46;;;;;;;2.83;0.85;;;;;;;12.20;81.86;100931.03;7375008;19;20277;-73
2023/07/04 01:08:22;;;;;;;5.72;0.98;;;;;;;12.19;81.94;100937.44;7378457;19;19937;-73
2023/07/04 01:10:52;;;;;;;5.68;1.08;;;;;;;12.18;81.95;100940.31;7378704;19;19939;-73
2023/07/04 01:13:33;;;;;;;8.10;1.13;;;;;;;12.12;82.58;100946.50;7375910;19;19933;-73
2023/07/04 01:16:03;;;;;;;4.68;1.00;;;;;;;12.13;81.64;100948.13;7378600;19;19946;-74
2023/07/04 01:18:35;;;;;;;7.72;1.20;;;;;;;12.10;82.21;100956.63;7380545;19;19982;-73
2023/07/04 01:21:05;;;;;;;6.38;1.02;;;;;;;12.08;81.85;100954.09;7378574;19;20368;-73
2023/07/04 01:23:49;;;;;;;4.78;1.20;;;;;;;12.08;82.35;100947.88;7379089;19;19930;-73
2023/07/04 01:26:30;;;;;;;6.43;1.38;;;;;;;12.04;82.88;100954.66;7377496;19;19961;-73
2023/07/04 01:28:59;;;;;;;6.03;1.13;;;;;;;12.04;82.44;100947.38;7379060;19;19935;-73
2023/07/04 01:31:30;;;;;;;5.55;1.40;;;;;;;12.04;82.09;100941.13;7377041;19;19926;-73
2023/07/04 01:34:00;;;;;;;7.32;1.30;;;;;;;12.05;82.25;100953.63;7379186;19;19939;-73
2023/07/04 01:36:31;;;;;;;5.28;1.17;;;;;;;12.04;81.95;100949.25;7374925;19;19929;-73
2023/07/04 01:39:00;;;;;;;4.70;1.10;;;;;;;12.03;81.71;100945.72;7376863;19;19918;-73
2023/07/04 01:41:32;;;;;;;3.33;0.88;;;;;;;12.03;82.04;100945.72;7378529;19;20009;-73
2023/07/04 01:44:03;;;;;;;4.03;0.90;;;;;;;12.04;82.05;100941.13;7377308;19;19922;-73
2023/07/04 01:46:32;;;;;;;4.38;1.40;;;;;;;12.03;81.85;100944.88;7378323;19;19935;-73
2023/07/04 01:49:01;;;;;;;6.15;1.30;;;;;;;12.02;81.83;100948.59;7385411;19;19927;-73
2023/07/04 01:51:32;;;;;;;3.53;0.82;;;;;;;12.00;82.00;100956.03;7385471;19;19927;-73
2023/07/04 01:54:01;;;;;;;5.82;1.50;;;;;;;11.98;81.97;100953.53;7382220;19;20592;-73
2023/07/04 01:56:34;;;;;;;4.80;1.15;;;;;;;11.99;82.06;100948.97;7385331;19;19964;-73
2023/07/04 01:59:03;;;;;;;5.40;0.98;;;;;;;11.99;82.15;100954.38;7382742;19;19933;-74
2023/07/04 02:01:31;;;;;;;4.95;1.13;;;;;;;11.99;82.42;100952.53;7382441;19;20443;-73
2023/07/04 02:04:00;;;;;;;5.18;1.77;;;;;;;11.99;81.90;100954.38;7384843;19;19929;-73
2023/07/04 02:06:29;;;;;;;4.40;1.20;;;;;;;11.96;81.74;100938.53;7380519;19;19922;-73
2023/07/04 02:08:58;;;;;;;7.93;1.27;;;;;;;11.94;81.86;100943.28;7383013;19;19922;-73
2023/07/04 02:11:26;;;;;;;7.57;1.20;;;;;;;11.92;81.96;100946.16;7386174;19;19927;-73
2023/07/04 02:13:58;;;;;;;7.60;1.35;;;;;;;11.89;82.57;100943.84;7387333;19;19962;-73
2023/07/04 02:16:27;;;;;;;8.38;1.70;;;;;;;11.87;82.15;100945.03;7385273;19;20267;-73
2023/07/04 02:18:58;;;;;;;5.20;1.40;;;;;;;11.82;82.49;100941.03;7383283;19;19943;-73
2023/07/04 02:21:27;;;;;;;5.97;1.45;;;;;;;11.79;82.80;100936.00;7379352;19;19922;-73
2023/07/04 02:23:56;;;;;;;5.00;2.03;;;;;;;11.77;83.48;100935.34;7383916;19;19934;-73
2023/07/04 02:26:25;;;;;;;6.65;1.88;;;;;;;11.77;83.54;100940.75;7381110;19;19944;-73
2023/07/04 02:28:54;;;;;;;4.25;1.70;;;;;;;11.77;83.87;100934.53;7383647;19;20806;-73
2023/07/04 02:31:26;;;;;;;9.77;2.05;;;;;;;11.78;84.18;100937.00;7384903;19;20490;-74
2023/07/04 02:33:55;;;;;;;4.95;2.00;;;;;;;11.79;83.94;100933.31;7386019;19;19933;-73
2023/07/04 02:36:24;;;;;;;7.35;2.17;;;;;;;11.80;83.64;100929.59;7379605;19;19967;-73
2023/07/04 02:38:53;;;;;;;5.45;1.60;;;;;;;11.79;83.72;100933.31;7382631;19;20410;-73
2023/07/04 02:41:22;;;;;;;8.73;2.03;;;;;;;11.78;84.52;100937.00;7383351;19;20012;-73
2023/07/04 02:43:50;;;;;;;7.82;2.10;;;;;;;11.76;84.79;100936.38;7382754;19;20403;-73
2023/07/04 02:46:20;;;;;;;9.60;2.63;;;;;;;11.78;84.53;100942.41;7382337;19;19926;-73
2023/07/04 02:48:52;;;;;;;6.72;2.15;;;;;;;11.77;85.50;100946.16;7383601;19;21467;-72
2023/07/04 02:51:20;;;;;;;7.45;2.85;;;;;;;11.78;84.77;100942.41;7382908;19;19929;-73
2023/07/04 02:53:49;;;;;;;5.72;2.10;;;;;;;11.79;85.06;100944.09;7382442;19;19929;-74
2023/07/04 02:56:18;;;;;;;9.00;2.90;;;;;;;11.82;85.20;100943.72;7382413;19;19933;-73
2023/07/04 02:58:47;;;;;;;11.00;3.03;;;;;;;11.85;85.40;100947.09;7380627;19;19918;-73
2023/07/04 03:01:15;;;;;;;5.47;2.55;;;;;;;11.86;85.77;100941.53;7379524;19;19923;-73
2023/07/04 03:03:44;;;;;;;8.02;2.95;;;;;;;11.86;85.53;100944.22;7384330;19;19986;-74
2023/07/04 03:06:15;;;;;;;9.02;2.80;;;;;;;11.90;86.27;100941.97;7374702;19;20473;-73
2023/07/04 03:08:45;;;;;;;7.25;2.40;;;;;;;11.91;85.75;100951.78;7377577;19;19918;-73
2023/07/04 03:11:13;;;;;;;11.48;3.05;;;;;;;11.93;86.46;100947.84;7382381;19;21034;-73
2023/07/04 03:13:42;;;;;;;10.80;2.58;;;;;;;11.97;85.89;100951.84;7381262;19;19926;-73
2023/07/04 03:16:11;;;;;;;9.45;2.95;;;;;;;11.99;85.80;100955.22;7383974;19;19923;-73
2023/07/04 03:18:39;;;;;;;9.15;2.83;;;;;;;12.03;86.21;100948.44;7385591;19;19982;-73
2023/07/04 03:21:08;;;;;;;8.27;2.67;;;;;;;12.06;85.98;100950.75;7383319;19;19982;-73
2023/07/04 03:23:40;;;;;;;9.43;2.80;;;;;;;12.10;86.32;100952.06;7380884;19;20005;-73
2023/07/04 03:26:09;;;;;;;9.35;3.08;;;;;;;12.14;85.98;100950.66;7381501;19;20048;-73
2023/07/04 03:28:37;;;;;;;12.93;3.92;;;;;;;12.18;86.17;100945.72;7381154;19;19943;-73
2023/07/04 03:31:06;;;;;;;9.52;2.50;;;;;;;12.22;85.81;100949.72;7383377;19;20557;-73
2023/07/04 03:33:35;;;;;;;6.22;2.30;;;;;;;12.27;85.79;100955.41;7378892;19;19923;-73
2023/07/04 03:36:05;;;;;;;8.85;3.33;;;;;;;12.30;86.15;100946.13;7377785;19;19926;-74
2023/07/04 03:38:34;;;;;;;5.95;2.55;;;;;;;12.32;85.58;100950.31;7378655;19;19982;-74
2023/07/04 03:41:06;;;;;;;10.82;2.90;;;;;;;12.35;85.90;100949.06;7381149;19;19930;-72
2023/07/04 03:43:34;;;;;;;9.18;2.70;;;;;;;12.38;85.17;100952.28;7379957;19;19919;-73
2023/07/04 03:46:04;;;;;;;4.82;2.25;;;;;;;12.39;85.58;100945.81;7381190;19;19929;-73
2023/07/04 03:48:34;;;;;;;10.30;2.85;;;;;;;12.40;85.82;100947.50;7380509;19;19918;-73
2023/07/04 03:51:03;;;;;;;6.15;2.80;;;;;;;12.42;85.61;100950.88;7380880;19;19930;-73
2023/07/04 03:53:35;;;;;;;8.60;2.70;;;;;;;12.44;85.49;100948.81;7379853;19;19926;-73
2023/07/04 03:56:06;;;;;;;11.68;2.72;;;;;;;12.45;85.10;100949.66;7382908;19;19922;-73
2023/07/04 03:58:36;;;;;;;7.25;2.33;;;;;;;12.48;85.00;100949.25;7379457;19;19933;-73
2023/07/04 04:01:06;;;;;;;7.10;2.40;;;;;;;12.50;85.15;100952.63;7379615;19;20367;-73
2023/07/04 04:03:37;;;;;;;9.15;2.08;;;;;;;12.51;84.40;100949.72;7380621;19;19994;-73
2023/07/04 04:06:06;;;;;;;5.18;1.58;;;;;;;12.54;84.51;100948.53;7378828;19;19950;-73
2023/07/04 04:08:35;;;;;;;5.68;2.22;;;;;;;12.56;84.29;100947.28;7378332;19;19959;-72
2023/07/04 04:11:06;;;;;;;5.35;1.63;;;;;;;12.60;83.92;100953.16;7380582;19;19922;-73
2023/07/04 04:13:35;;;;;;;5.38;1.70;;;;;;;12.60;83.85;100945.88;7383096;19;20381;-73
2023/07/04 04:16:04;;;;;;;7.47;2.40;;;;;;;12.60;83.94;100947.75;7384895;19;20377;-73
2023/07/04 04:18:33;;;;;;;8.57;2.03;;;;;;;12.58;84.04;100956.06;7386687;19;19922;-72
2023/07/04 04:21:02;;;;;;;7.22;2.33;;;;;;;12.56;84.21;100951.84;7383401;19;19930;-72
2023/07/04 04:23:30;;;;;;;8.32;3.28;;;;;;;12.53;84.79;100941.44;7382239;19;19922;-72
2023/07/04 04:26:00;;;;;;;8.18;1.88;;;;;;;12.52;84.40;100951.41;7383381;19;19926;-71
2023/07/04 04:28:31;;;;;;;5.80;1.55;;;;;;;12.52;84.43;100956.81;7382554;19;19930;-72
2023/07/04 04:31:00;;;;;;;9.75;1.73;;;;;;;12.52;84.71;100954.09;7383179;19;19972;-71
2023/07/04 04:33:29;;;;;;;5.55;1.90;;;;;;;12.52;84.75;100956.81;7383124;19;19950;-72
2023/07/04 04:35:58;;;;;;;7.43;2.10;;;;;;;12.53;84.42;100963.91;7378516;19;20503;-72
2023/07/04 04:38:26;;;;;;;7.70;1.90;;;;;;;12.54;84.76;100967.44;7380931;19;19919;-72
2023/07/04 04:40:55;;;;;;;6.53;2.13;;;;;;;12.55;84.71;100969.97;7381894;19;19922;-72
2023/07/04 04:43:24;;;;;;;6.45;1.90;;;;;;;12.57;84.55;100975.16;7380115;19;20412;-72
2023/07/04 04:45:57;;;;;;;8.02;1.95;;;;;;;12.61;84.48;100976.47;7381459;19;19983;-72
2023/07/04 04:48:29;;;;;;;5.13;1.75;;;;;;;12.67;84.21;100979.28;7382379;19;20245;-72
2023/07/04 04:51:00;;;;;;;6.25;1.98;;;;;;;12.73;84.70;100978.50;7381846;19;19961;-72
2023/07/04 04:53:28;;;;;;;8.00;2.20;;;;;;;12.83;84.23;100974.66;7383057;19;19918;-72
2023/07/04 04:55:57;;;;;;;7.95;1.73;;;;;;;12.91;83.84;100977.25;7384844;19;19919;-71
2023/07/04 04:58:26;;;;;;;7.50;2.13;;;;;;;12.97;83.91;100984.63;7381377;19;19926;-72
2023/07/04 05:00:57;;;;;;;8.23;2.13;;;;;;;13.02;84.45;100990.31;7380127;19;20002;-71
2023/07/04 05:03:26;;;;;;;8.80;2.47;;;;;;;13.00;84.29;100995.91;7382065;19;19919;-73
2023/07/04 05:05:55;;;;;;;5.75;2.50;;;;;;;12.98;84.39;100991.72;7383372;19;19922;-73
2023/07/04 05:08:24;;;;;;;9.57;2.40;;;;;;;12.99;84.05;100982.56;7380572;19;19986;-72
2023/07/04 05:11:02;;;;;;;9.13;2.38;;;;;;;12.99;85.11;100985.25;7382186;19;19923;-72
2023/07/04 05:13:31;;;;;;;10.07;2.45;;;;;;;13.03;84.46;100983.88;7381757;19;19926;-72
2023/07/04 05:16:07;;;;;;;8.00;2.00;;;;;;;13.04;84.87;100986.38;7382953;19;20253;-72
2023/07/04 05:18:37;;;;;;;10.02;2.47;;;;;;;13.06;85.02;100978.91;7381556;19;19977;-72
2023/07/04 05:21:08;;;;;;;10.55;2.75;;;;;;;13.07;84.46;100988.69;7376262;19;19962;-72
2023/07/04 05:23:40;;;;;;;7.75;2.28;;;;;;;13.09;84.85;100988.50;7379378;19;19929;-72
2023/07/04 05:26:11;;;;;;;9.10;2.40;;;;;;;13.10;85.14;100984.78;7376357;19;19922;-72
2023/07/04 05:28:40;;;;;;;6.10;2.10;;;;;;;13.10;84.75;100982.94;7378910;19;19922;-71
2023/07/04 05:31:13;;;;;;;9.25;2.40;;;;;;;13.12;85.13;100990.84;7376180;19;19915;-71
2023/07/04 05:33:42;;;;;;;6.10;2.30;;;;;;;13.14;84.51;100992.34;7377953;19;19958;-72
2023/07/04 05:36:13;;;;;;;5.00;2.50;;;;;;;13.16;84.87;100992.16;7376679;19;19922;-72
2023/07/04 05:38:42;;;;;;;7.18;2.55;;;;;;;13.20;84.56;100998.03;7380123;19;19918;-72
2023/07/04 05:41:12;;;;;;;11.45;2.58;;;;;;;13.23;84.87;100993.09;7378825;19;19923;-72
2023/07/04 05:43:41;;;;;;;8.73;2.20;;;;;;;13.25;84.42;100993.72;7378358;19;20367;-73
2023/07/04 05:46:14;;;;;;;6.70;2.05;;;;;;;13.29;84.36;100994.19;7378265;19;19927;-72
2023/07/04 05:48:43;;;;;;;4.25;2.08;;;;;;;13.32;84.31;100999.22;7379930;19;20007;-72
2023/07/04 05:51:14;;;;;;;10.32;2.35;;;;;;;13.35;84.28;101007.78;7379953;19;19929;-72
2023/07/04 05:53:45;;;;;;;6.88;2.50;;;;;;;13.39;84.00;101013.63;7377453;19;20890;-74
2023/07/04 05:56:16;;;;;;;7.10;2.63;;;;;;;13.44;83.96;101013.91;7381193;19;19923;-72
2023/07/04 05:58:46;;;;;;;7.35;2.42;;;;;;;13.49;83.90;101006.06;7377148;19;19929;-71
2023/07/04 06:01:20;;;;;;;9.73;2.67;;;;;;;13.51;84.30;101004.81;7371667;19;19923;-71
2023/07/04 06:03:49;;;;;;;6.57;1.90;;;;;;;13.57;83.79;101009.47;7373578;19;19927;-72
2023/07/04 06:06:21;;;;;;;5.32;2.22;;;;;;;13.63;83.54;101016.81;7374949;19;19922;-72
2023/07/04 06:08:51;;;;;;;8.57;2.38;;;;;;;13.70;83.41;101013.34;7374885;19;19942;-73
2023/07/04 06:11:22;;;;;;;6.40;2.22;;;;;;;13.74;83.65;101014.63;7379286;19;19934;-71
2023/07/04 06:13:51;;;;;;;7.05;2.63;;;;;;;13.77;83.05;101011.50;7375878;19;19940;-72
2023/07/04 06:16:22;;;;;;;9.00;2.22;;;;;;;13.82;83.11;101014.47;7380301;19;19922;-72
2023/07/04 06:18:51;;;;;;;5.22;1.98;;;;;;;13.88;82.71;101025.41;7380442;19;19922;-75
2023/07/04 06:21:22;;;;;;;9.13;2.30;;;;;;;13.91;82.22;101014.16;7382779;19;19942;-73
2023/07/04 06:23:50;;;;;;;10.07;2.83;;;;;;;13.97;82.22;101016.09;7378976;19;20006;-73
2023/07/04 06:26:19;;;;;;;5.78;1.85;;;;;;;14.03;81.07;101028.00;7377083;19;20530;-70
2023/07/04 06:28:48;;;;;;;5.38;2.05;;;;;;;14.09;80.99;101022.66;7370509;19;19926;-70
2023/07/04 06:31:18;;;;;;;7.78;1.58;;;;;;;14.18;80.36;101028.75;7373097;19;20264;-71
2023/07/04 06:33:50;;;;;;;6.55;1.58;;;;;;;14.23;79.86;101034.44;7374633;19;19933;-71
2023/07/04 06:36:19;;;;;;;6.75;1.70;;;;;;;14.30;80.47;101038.03;7376891;19;20353;-70
2023/07/04 06:38:47;;;;;;;4.90;1.20;;;;;;;14.35;79.67;101049.16;7375908;19;20457;-71
2023/07/04 06:41:18;;;;;;;4.85;1.33;;;;;;;14.44;79.50;101036.28;7382379;19;20225;-70
2023/07/04 06:43:48;;;;;;;4.05;1.30;;;;;;;14.48;78.81;101040.28;7382254;19;20344;-71
2023/07/04 06:46:19;;;;;;;5.68;1.58;;;;;;;14.49;77.94;101056.34;7375669;19;20381;-71
2023/07/04 06:48:52;;;;;;;2.80;1.15;;;;;;;14.50;77.35;101055.28;7379729;19;19918;-71
2023/07/04 06:51:25;;;;;;;2.40;0.93;;;;;;;14.53;77.92;101048.66;7379366;19;20598;-71
2023/07/04 06:53:54;;;;;;;4.82;0.98;;;;;;;14.59;77.76;101055.13;7379962;19;19947;-71
2023/07/04 06:56:25;;;;;;;3.55;1.10;;;;;;;14.62;77.63;101054.75;7379823;19;19946;-70
2023/07/04 06:58:55;;;;;;;3.75;1.02;;;;;;;14.71;77.08;101070.66;7381436;19;24075;-70
2023/07/04 07:01:26;;;;;;;3.80;1.08;;;;;;;14.79;76.72;101065.09;7380246;19;19918;-70
2023/07/04 07:03:59;;;;;;;2.95;0.80;;;;;;;14.88;76.42;101057.63;7383342;19;20379;-70
2023/07/04 07:06:29;;;;;;;5.13;1.25;;;;;;;14.93;76.39;101065.97;7383006;19;19918;-70
2023/07/04 07:08:57;;;;;;;6.18;1.08;;;;;;;14.98;75.76;101072.47;7379209;19;20341;-70
2023/07/04 07:11:27;;;;;;;10.57;1.40;;;;;;;14.97;75.82;101072.72;7379653;19;19931;-70
2023/07/04 07:13:56;;;;;;;2.65;1.08;;;;;;;14.95;75.71;101069.34;7374066;19;19942;-71
2023/07/04 07:16:26;;;;;;;2.92;0.70;;;;;;;14.96;75.97;101071.03;7378555;19;19926;-70
2023/07/04 07:18:58;;;;;;;5.95;0.88;;;;;;;14.97;75.58;101070.00;7389280;19;19925;-70
2023/07/04 07:21:29;;;;;;;6.22;1.13;;;;;;;15.01;75.73;101084.81;7367592;19;19918;-70
2023/07/04 07:23:58;;;;;;;5.25;0.90;;;;;;;15.09;75.40;101072.97;7368750;19;19926;-70
2023/07/04 07:26:28;;;;;;;1.83;0.90;;;;;;;15.18;74.90;101072.59;7382423;19;19945;-70
2023/07/04 07:28:57;;;;;;;4.90;0.90;;;;;;;15.28;75.22;101073.03;7380322;19;19918;-70
2023/07/04 07:31:28;;;;;;;3.13;0.88;;;;;;;15.36;74.48;101075.56;7384095;19;19930;-70
2023/07/04 07:33:59;;;;;;;4.38;0.98;;;;;;;15.34;73.16;101071.41;7381809;19;19928;-70
2023/07/04 07:36:32;;;;;;;3.63;1.10;;;;;;;15.35;73.09;101079.34;7379324;19;19985;-71
2023/07/04 07:39:02;;;;;;;2.67;1.02;;;;;;;15.38;73.58;101081.66;7379946;19;20328;-71
2023/07/04 07:41:34;;;;;;;3.80;0.80;;;;;;;15.44;73.28;101086.25;7385706;19;20919;-71
2023/07/04 07:44:03;;;;;;;5.55;1.35;;;;;;;15.48;72.80;101094.84;7380327;19;19961;-71
2023/07/04 07:46:32;;;;;;;3.95;0.75;;;;;;;15.54;72.79;101083.19;7382654;19;19927;-71
2023/07/04 07:49:03;;;;;;;3.67;0.80;;;;;;;15.63;72.64;101089.28;7380259;19;19922;-71
2023/07/04 07:51:33;;;;;;;2.67;0.90;;;;;;;15.68;71.60;101089.50;7380866;19;20003;-71
2023/07/04 07:54:03;;;;;;;3.35;0.80;;;;;;;15.72;71.50;101090.75;7379638;19;19922;-72
2023/07/04 07:56:35;;;;;;;2.60;0.70;;;;;;;15.80;71.25;101090.56;7381945;19;19961;-71
2023/07/04 07:59:03;;;;;;;2.08;0.77;;;;;;;15.91;71.40;101103.56;7377895;19;19929;-71
2023/07/04 08:01:34;;;;;;;2.45;0.77;;;;;;;15.98;70.69;101100.84;7382357;19;19982;-71
2023/07/04 08:04:07;;;;;;;7.20;1.20;;;;;;;16.00;69.28;101104.22;7381272;19;19942;-71
2023/07/04 08:06:38;;;;;;;2.22;0.85;;;;;;;16.03;68.96;101106.50;7378553;19;19918;-71
2023/07/04 08:09:10;;;;;;;2.45;0.73;;;;;;;16.02;69.72;101105.66;7376107;19;19930;-71
2023/07/04 08:11:40;;;;;;;4.90;0.80;;;;;;;16.02;69.24;101093.94;7379012;19;19997;-71
2023/07/04 08:14:09;;;;;;;3.80;0.93;;;;;;;16.07;69.99;101091.44;7369444;19;19926;-70
2023/07/04 08:16:44;;;;;;;4.53;1.25;;;;;;;16.10;68.06;101093.75;7376465;19;19918;-71
2023/07/04 08:19:18;;;;;;;8.20;1.25;;;;;;;16.12;68.18;101092.50;7382570;19;19928;-71
2023/07/04 08:21:47;;;;;;;3.28;0.85;;;;;;;16.16;68.92;101095.66;7381732;19;19920;-71
2023/07/04 08:24:17;;;;;;;3.30;0.77;;;;;;;16.22;69.30;101106.50;7377924;19;20322;-71
2023/07/04 08:26:48;;;;;;;2.00;0.95;;;;;;;16.28;68.88;101102.13;7380262;19;19938;-72
2023/07/04 08:29:17;;;;;;;3.03;0.90;;;;;;;16.30;67.88;101114.50;7380075;19;19919;-71
2023/07/04 08:31:46;;;;;;;3.55;0.65;;;;;;;16.32;68.29;101112.38;7382562;19;20315;-72
2023/07/04 08:34:17;;;;;;;4.05;1.08;;;;;;;16.35;67.30;101114.69;7378353;19;19931;-71
2023/07/04 08:36:46;;;;;;;2.28;0.57;;;;;;;16.39;68.09;101111.56;7379580;19;19922;-71
2023/07/04 08:39:16;;;;;;;3.92;0.90;;;;;;;16.42;67.77;101119.28;7376437;19;19926;-71
2023/07/04 08:41:52;;;;;;;4.47;0.90;;;;;;;16.46;67.17;101112.38;7380277;19;19914;-71
2023/07/04 08:44:24;;;;;;;3.90;0.90;;;;;;;16.50;65.89;101128.06;7380357;19;19926;-71
2023/07/04 08:46:56;;;;;;;1.77;0.82;;;;;;;16.53;66.74;101119.50;7378974;19;19922;-71
2023/07/04 08:49:30;;;;;;;;;;;;;;;16.50;66.49;101119.91;7381528;19;19927;-71
2023/07/04 08:52:05;;;;;;;5.07;0.90;;;;;;;16.62;66.37;101133.75;7375731;19;19925;-71
2023/07/04 08:54:35;;;;;;;2.22;1.00;;;;;;;16.65;66.85;101133.34;7381242;19;19926;-71
2023/07/04 08:57:14;;;;;;;4.30;1.17;;;;;;;16.63;66.68;101146.31;7379439;19;19986;-71
2023/07/04 08:59:44;;;;;;;4.45;0.80;;;;;;;16.66;67.54;101143.16;7399404;19;19922;-71
2023/07/04 09:02:45;;;;;;;3.50;0.93;;;;;;;16.64;64.29;101137.09;7391301;19;19918;-71
2023/07/04 09:05:25;;;;;;;1.83;0.60;;;;;;;16.58;64.05;101146.09;7375301;19;20583;-71
2023/07/04 09:08:02;;;;;;;4.55;0.70;;;;;;;16.53;64.07;101134.97;7372622;19;19926;-71
2023/07/04 09:10:38;;;;;;;1.80;0.75;;;;;;;16.50;62.36;101155.28;7373573;19;19978;-71
2023/07/04 09:13:12;;;;;;;2.90;0.75;;;;;;;16.61;62.94;101141.06;7378987;19;19977;-71
2023/07/04 09:15:44;;;;;;;3.17;0.90;;;;;;;16.65;62.91;101141.50;7375177;19;19929;-71
2023/07/04 09:18:23;;;;;;;3.45;1.27;;;;;;;16.66;62.59;101144.00;7379822;19;19934;-70
2023/07/04 09:21:00;;;;;;;3.88;0.80;;;;;;;16.73;61.82;101152.16;7372478;19;19938;-70
2023/07/04 09:23:29;;;;;;;4.50;0.95;;;;;;;16.84;62.73;101159.69;7377433;19;19994;-70
2023/07/04 09:26:00;;;;;;;7.50;0.73;;;;;;;16.78;61.18;101157.81;7374659;19;20763;-70
2023/07/04 09:28:30;;;;;;;6.32;1.10;;;;;;;16.75;60.64;101160.94;7372592;19;20287;-71
2023/07/04 09:31:01;;;;;;;4.80;1.10;;;;;;;16.74;61.89;101145.66;7378041;19;21263;-70
2023/07/04 09:33:30;;;;;;;4.75;0.70;;;;;;;16.82;61.62;101141.91;7378883;19;19953;-71
2023/07/04 09:36:03;;;;;;;4.00;0.75;;;;;;;16.87;60.94;101163.88;7379415;19;19949;-70
2023/07/04 09:38:53;;;;;;;2.78;0.60;;;;;;;16.84;59.36;101154.25;7376119;19;20534;-70
2023/07/04 09:41:25;;;;;;;3.10;0.93;;;;;;;16.90;60.39;101155.28;7376060;19;19986;-70
2023/07/04 09:43:54;;;;;;;4.32;0.80;;;;;;;16.92;60.98;101159.47;7378010;19;19925;-71
2023/07/04 09:46:27;;;;;;;3.38;0.93;;;;;;;17.13;59.95;101156.50;7376084;19;19982;-71
2023/07/04 09:48:59;;;;;;;3.72;0.77;;;;;;;17.22;61.35;101155.22;7378354;19;20283;-71
2023/07/04 09:51:33;;;;;;;4.72;1.10;;;;;;;17.44;60.40;101158.50;7380102;19;19942;-71
2023/07/04 09:54:16;;;;;;;5.22;1.45;;;;;;;17.47;58.42;101173.59;7372469;19;19925;-72
2023/07/04 09:56:46;;;;;;;6.15;1.38;;;;;;;17.62;58.95;101157.84;7378655;19;19962;-70
2023/07/04 09:59:17;;;;;;;6.15;1.40;;;;;;;17.73;58.37;101161.78;7378857;19;20502;-70
2023/07/04 10:01:49;;;;;;;2.78;0.77;;;;;;;17.76;59.23;101155.91;7375769;19;19922;-71
2023/07/04 10:04:25;;;;;;;;;;;;;;;17.65;55.84;101190.09;7378154;19;19923;-71
2023/07/04 10:06:58;;;;;;;4.93;1.08;;;;;;;17.86;53.87;101167.97;7368713;19;20436;-77
2023/07/04 10:09:29;;;;;;;3.38;1.30;;;;;;;18.05;56.00;101163.50;7384575;19;19923;-77
2023/07/04 10:12:11;;;;;;;6.25;1.40;;;;;;;18.05;53.64;101163.50;7388231;19;19918;-79
2023/07/04 10:14:48;;;;;;;6.20;1.23;;;;;;;18.14;54.36;101170.34;7389543;19;19923;-76
2023/07/04 10:17:19;;;;;;;6.20;1.10;;;;;;;18.35;54.77;101182.81;7392826;19;19929;-79
2023/07/04 10:19:50;;;;;;;5.28;1.17;;;;;;;18.27;52.92;101174.88;7399148;19;19930;-78
2023/07/04 10:22:34;;;;;;;5.95;1.05;;;;;;;18.40;53.58;101163.88;7394480;19;19935;-78
2023/07/04 10:25:04;;;;;;;6.22;1.13;;;;;;;18.37;53.97;101167.06;7397712;19;19922;-78
2023/07/04 10:27:35;;;;;;;4.03;1.08;;;;;;;18.41;51.03;101190.97;7397100;19;19977;-79
2023/07/04 10:30:07;;;;;;;4.85;1.15;;;;;;;18.56;51.68;101168.81;7395585;19;19969;-79
2023/07/04 10:32:42;;;;;;;6.68;1.02;;;;;;;18.56;50.41;101164.22;7394978;19;19930;-79
2023/07/04 10:35:14;;;;;;;4.18;0.82;;;;;;;18.57;52.02;101173.22;7390644;19;19934;-78
2023/07/04 10:37:53;;;;;;;3.88;1.38;;;;;;;18.57;49.19;101179.53;7386499;19;19947;-72
2023/07/04 10:40:24;;;;;;;2.38;0.95;;;;;;;18.68;50.88;101177.94;7401742;19;19982;-78
2023/07/04 10:43:01;;;;;;;5.55;1.00;;;;;;;18.81;49.99;101166.13;7394583;19;19922;-74
2023/07/04 10:45:30;;;;;;;7.15;1.17;;;;;;;18.96;51.54;101161.13;7387226;19;20002;-74
2023/07/04 10:48:03;;;;;;;4.55;1.00;;;;;;;19.10;49.05;101167.28;7382896;19;19961;-73
2023/07/04 10:50:36;;;;;;;4.82;1.00;;;;;;;19.21;48.53;101152.88;7385218;19;20507;-74
2023/07/04 10:53:07;;;;;;;5.07;1.02;;;;;;;19.23;50.40;101161.69;7394366;19;19986;-82
2023/07/04 10:55:41;;;;;;;6.43;1.20;;;;;;;19.19;49.13;101157.75;7401322;19;19986;-79
2023/07/04 10:58:14;;;;;;;4.75;0.90;;;;;;;19.12;49.52;101170.63;7399379;19;20003;-80
2023/07/04 11:00:47;;;;;;;6.05;1.10;;;;;;;19.16;49.73;101174.56;7391287;19;20374;-76
2023/07/04 11:03:23;;;;;;;4.78;1.10;;;;;;;18.99;50.01;101172.44;7343007;19;19939;-73
2023/07/04 11:05:56;;;;;;;5.25;1.15;;;;;;;18.86;49.75;101168.97;7391116;19;19923;-76
2023/07/04 11:08:34;;;;;;;3.70;1.10;;;;;;;18.93;49.02;101170.63;7385940;19;19986;-75
2023/07/04 11:11:10;;;;;;;6.28;1.02;;;;;;;18.90;49.02;101168.31;7384614;19;19927;-76
2023/07/04 11:13:47;;;;;;;5.85;1.02;;;;;;;18.70;50.38;101178.59;7388218;19;19997;-77
2023/07/04 11:16:15;;;;;;;8.82;1.30;;;;;;;18.77;51.40;101182.06;7384559;19;19926;-77
2023/07/04 11:18:55;;;;;;;6.50;1.13;;;;;;;19.03;50.28;101181.84;7390857;19;19923;-77
2023/07/04 11:21:23;;;;;;;6.22;1.10;;;;;;;19.38;49.86;101176.66;7400373;19;19981;-78
2023/07/04 11:24:10;;;;;;;9.07;1.20;;;;;;;19.59;46.46;101175.38;7400292;19;19950;-79
2023/07/04 11:26:51;;;;;;;4.55;1.38;;;;;;;19.75;43.45;101204.84;7382852;19;19914;-73
2023/07/04 11:29:23;;;;;;;2.80;0.70;;;;;;;19.84;44.23;101176.13;7374820;19;19923;-72
2023/07/04 11:32:20;;;;;;;3.38;0.90;;;;;;;19.51;44.73;101181.16;7379068;19;19919;-73
2023/07/04 11:34:51;;;;;;;5.55;0.98;;;;;;;19.55;46.30;101190.56;7374686;19;19934;-72
2023/07/04 11:37:25;;;;;;;;;;;;;;;19.76;44.37;101192.03;7384909;19;19927;-72
2023/07/04 11:39:59;;;;;;;4.63;0.88;;;;;;;20.11;43.93;101190.25;7383537;19;19931;-72
2023/07/04 11:42:39;;;;;;;3.75;0.80;;;;;;;20.49;44.61;101175.44;7382182;19;19923;-72
2023/07/04 11:45:13;;;;;;;3.45;1.00;;;;;;;20.79;45.04;101182.50;7380422;19;19978;-72